createdAt,value
2023-05-12T00:00:12.071Z,10.01
2023-05-12T00:07:21.806Z,10.08
2023-05-12T00:10:55.920Z,10.09
2023-05-12T00:18:03.997Z,10.13
2023-05-12T00:21:35.777Z,10.19
2023-05-12T00:25:18.069Z,10.20
2023-05-12T00:38:53.688Z,10.08
2023-05-12T00:41:48.714Z,10.13
2023-05-12T00:52:35.210Z,10.15
2023-05-12T00:55:37.184Z,10.15
2023-05-12T00:58:40.223Z,10.04
2023-05-12T01:01:48.689Z,10.01
2023-05-12T01:04:48.050Z,10.04
2023-05-12T01:15:14.002Z,10.13
2023-05-12T01:18:35.441Z,10.13
2023-05-12T01:21:58.482Z,10.12
2023-05-12T01:29:07.398Z,10.04
2023-05-12T01:36:14.762Z,10.03
2023-05-12T01:46:52.564Z,10.04
2023-05-12T01:50:16.178Z,10.01
2023-05-12T01:53:45.605Z,10.00
2023-05-12T01:57:28.097Z,9.95
2023-05-12T02:01:07.745Z,10.03
2023-05-12T02:04:52.106Z,10.06
2023-05-12T02:12:22.113Z,10.02
2023-05-12T02:31:12.585Z,10.06
2023-05-12T02:34:57.933Z,10.02
2023-05-12T02:38:39.487Z,10.01
2023-05-12T02:49:40.945Z,10.02
2023-05-12T02:59:37.335Z,9.99
2023-05-12T03:07:34.061Z,10.08
2023-05-12T03:11:33.374Z,10.05
2023-05-12T03:15:11.187Z,10.11
2023-05-12T03:22:14.484Z,10.15
2023-05-12T03:25:44.784Z,10.09
2023-05-12T03:29:16.306Z,10.08
2023-05-12T03:32:41.279Z,10.12
2023-05-12T03:36:38.178Z,10.12
2023-05-12T03:47:00.024Z,10.09
2023-05-12T03:50:33.164Z,10.09
2023-05-12T03:54:00.017Z,10.16
2023-05-12T03:57:58.726Z,9.98
2023-05-12T04:01:43.897Z,10.06
2023-05-12T04:05:14.321Z,10.05
2023-05-12T04:08:50.222Z,10.01
2023-05-12T04:30:53.267Z,10.02
2023-05-12T04:33:22.996Z,10.08
2023-05-12T04:35:51.171Z,10.13
2023-05-12T04:38:19.268Z,10.06
2023-05-12T04:40:47.809Z,10.01
2023-05-12T04:45:47.230Z,9.97
2023-05-12T04:48:17.083Z,10.01
2023-05-12T04:50:45.329Z,10.00
2023-05-12T04:53:13.578Z,10.03
2023-05-12T04:55:42.854Z,10.03
2023-05-12T04:58:11.245Z,10.15
2023-05-12T05:00:39.531Z,10.21
2023-05-12T05:03:08.172Z,10.23
2023-05-12T05:05:37.810Z,10.27
2023-05-12T05:08:06.341Z,10.15
2023-05-12T05:10:35.752Z,10.19
2023-05-12T05:13:04.387Z,10.21
2023-05-12T05:15:32.564Z,10.19
2023-05-12T05:18:01.866Z,10.23
2023-05-12T05:20:32.863Z,10.28
2023-05-12T05:23:02.771Z,10.32
2023-05-12T05:25:30.948Z,10.32
2023-05-12T05:27:59.178Z,10.35
2023-05-12T05:30:27.543Z,10.36
2023-05-12T05:32:55.752Z,10.45
2023-05-12T05:35:23.928Z,10.51
2023-05-12T05:37:54.652Z,10.52
2023-05-12T05:40:25.111Z,10.63
2023-05-12T05:42:53.476Z,10.60
2023-05-12T05:45:22.422Z,10.65
2023-05-12T05:47:53.413Z,10.72
2023-05-12T05:50:22.726Z,10.70
2023-05-12T05:52:51.029Z,10.62
2023-05-12T05:55:19.564Z,10.67
2023-05-12T05:57:49.600Z,10.73
2023-05-12T06:00:18.205Z,10.79
2023-05-12T06:02:49.871Z,10.82
2023-05-12T06:05:21.097Z,10.77
2023-05-12T06:07:49.871Z,10.79
2023-05-12T06:10:18.162Z,10.81
2023-05-12T06:12:46.423Z,10.76
2023-05-12T06:15:15.957Z,10.94
2023-05-12T06:17:44.151Z,10.88
2023-05-12T06:20:13.542Z,10.86
2023-05-12T06:22:42.402Z,10.91
2023-05-12T06:25:11.708Z,10.96
2023-05-12T06:27:39.831Z,10.86
2023-05-12T06:30:09.699Z,10.92
2023-05-12T06:32:39.366Z,10.99
2023-05-12T06:35:08.218Z,10.94
2023-05-12T06:37:36.401Z,10.97
2023-05-12T06:40:05.032Z,10.94
2023-05-12T06:42:33.445Z,10.99
2023-05-12T06:45:08.782Z,11.01
2023-05-12T06:47:38.398Z,11.05
2023-05-12T06:50:08.519Z,11.13
2023-05-12T06:52:37.613Z,11.20
2023-05-12T06:55:07.101Z,11.35
2023-05-12T06:57:35.363Z,11.41
2023-05-12T07:00:03.824Z,11.38
2023-05-12T07:02:32.200Z,11.52
2023-05-12T07:05:02.002Z,11.54
2023-05-12T07:07:30.150Z,11.77
2023-05-12T07:09:58.424Z,11.82
2023-05-12T07:12:26.748Z,11.90
2023-05-12T07:14:54.923Z,12.18
2023-05-12T07:17:23.061Z,12.35
2023-05-12T07:19:51.813Z,12.45
2023-05-12T07:22:21.507Z,12.41
2023-05-12T07:24:49.609Z,12.38
2023-05-12T07:27:17.806Z,12.50
2023-05-12T07:29:46.054Z,12.47
2023-05-12T07:32:14.182Z,12.55
2023-05-12T07:34:42.503Z,12.64
2023-05-12T07:37:10.675Z,12.77
2023-05-12T07:39:40.494Z,13.15
2023-05-12T07:42:09.132Z,12.97
2023-05-12T07:44:37.305Z,13.04
2023-05-12T07:47:08.708Z,13.42
2023-05-12T07:49:36.932Z,13.39
2023-05-12T07:52:05.577Z,13.45
2023-05-12T07:54:33.781Z,13.50
2023-05-12T07:57:03.336Z,13.72
2023-05-12T07:59:31.492Z,13.60
2023-05-12T08:01:59.731Z,13.70
2023-05-12T08:04:27.958Z,13.55
2023-05-12T08:06:56.201Z,13.60
2023-05-12T08:09:24.339Z,13.85
2023-05-12T08:11:52.531Z,13.92
2023-05-12T08:14:23.034Z,13.89
2023-05-12T08:16:51.299Z,13.88
2023-05-12T08:19:19.566Z,14.09
2023-05-12T08:21:47.935Z,13.97
2023-05-12T08:24:16.077Z,13.79
2023-05-12T08:26:44.292Z,13.74
2023-05-12T08:29:12.507Z,13.74
2023-05-12T08:31:42.329Z,13.48
2023-05-12T08:34:11.229Z,13.31
2023-05-12T08:36:40.002Z,13.31
2023-05-12T08:39:10.107Z,13.33
2023-05-12T08:41:44.945Z,13.42
2023-05-12T08:44:13.507Z,13.38
2023-05-12T08:46:43.730Z,13.48
2023-05-12T08:49:15.835Z,13.30
2023-05-12T08:51:54.438Z,13.34
2023-05-12T08:54:27.631Z,13.23
2023-05-12T08:59:27.808Z,13.03
2023-05-12T09:01:59.803Z,13.01
2023-05-12T09:04:28.476Z,12.93
2023-05-12T09:06:58.317Z,12.84
2023-05-12T09:09:28.818Z,12.92
2023-05-12T09:11:58.751Z,12.88
2023-05-12T09:14:27.571Z,12.84
2023-05-12T09:17:02.326Z,12.97
2023-05-12T09:19:31.517Z,12.94
2023-05-12T09:22:00.386Z,13.16
2023-05-12T09:24:38.712Z,13.16
2023-05-12T09:27:07.922Z,13.25
2023-05-12T09:29:45.180Z,13.50
2023-05-12T09:32:32.030Z,13.56
2023-05-12T09:35:04.619Z,13.78
2023-05-12T09:37:33.469Z,13.77
2023-05-12T09:40:02.060Z,14.08
2023-05-12T09:42:32.139Z,14.28
2023-05-12T09:45:01.308Z,14.61
2023-05-12T09:47:36.321Z,14.90
2023-05-12T09:50:05.011Z,14.95
2023-05-12T09:52:38.824Z,14.90
2023-05-12T09:55:09.873Z,14.79
2023-05-12T09:57:41.787Z,15.14
2023-05-12T10:00:24.937Z,15.13
2023-05-12T10:03:05.707Z,15.02
2023-05-12T10:05:35.370Z,14.80
2023-05-12T10:08:07.210Z,14.69
2023-05-12T10:10:35.927Z,14.53
2023-05-12T10:13:04.813Z,14.57
2023-05-12T10:15:35.081Z,14.80
2023-05-12T10:18:05.230Z,14.90
2023-05-12T10:20:34.424Z,14.87
2023-05-12T10:23:03.311Z,14.87
2023-05-12T10:25:32.744Z,14.72
2023-05-12T10:28:04.283Z,14.60
2023-05-12T10:30:32.849Z,14.58
2023-05-12T10:33:02.003Z,14.60
2023-05-12T10:35:35.830Z,14.34
2023-05-12T10:38:07.593Z,14.25
2023-05-12T10:40:36.071Z,14.14
2023-05-12T10:43:04.992Z,14.23
2023-05-12T10:45:37.428Z,14.19
2023-05-12T10:48:08.393Z,14.43
2023-05-12T10:50:38.366Z,14.32
2023-05-12T10:53:07.557Z,14.20
2023-05-12T10:55:45.597Z,14.31
2023-05-12T10:58:14.933Z,14.30
2023-05-12T11:00:51.961Z,14.18
2023-05-12T11:03:27.582Z,13.92
2023-05-12T11:06:03.435Z,13.57
2023-05-12T11:08:36.003Z,13.46
2023-05-12T11:11:04.499Z,13.52
2023-05-12T11:13:32.946Z,13.58
2023-05-12T11:16:01.248Z,13.41
2023-05-12T11:18:29.665Z,13.38
2023-05-12T11:20:58.166Z,13.23
2023-05-12T11:23:29.190Z,13.10
2023-05-12T11:25:57.776Z,12.98
2023-05-12T11:28:25.992Z,13.11
2023-05-12T11:30:55.526Z,13.17
2023-05-12T11:33:24.448Z,13.24
2023-05-12T11:35:52.833Z,13.38
2023-05-12T11:38:24.470Z,13.35
2023-05-12T11:40:54.694Z,13.37
2023-05-12T11:43:23.555Z,13.48
2023-05-12T11:45:51.899Z,13.67
2023-05-12T11:48:21.699Z,13.73
2023-05-12T11:50:51.931Z,14.01
2023-05-12T11:53:20.592Z,13.98
2023-05-12T11:55:50.486Z,14.14
2023-05-12T11:58:26.040Z,14.18
2023-05-12T12:00:54.873Z,14.46
2023-05-12T12:03:23.176Z,14.69
2023-05-12T12:06:02.420Z,15.02
2023-05-12T12:08:30.620Z,14.95
2023-05-12T12:10:59.300Z,15.31
2023-05-12T12:13:30.246Z,15.10
2023-05-12T12:15:58.474Z,14.83
2023-05-12T12:18:27.176Z,14.56
2023-05-12T12:20:55.411Z,14.35
2023-05-12T12:23:23.653Z,14.27
2023-05-12T12:25:52.036Z,14.35
2023-05-12T12:28:20.601Z,14.59
2023-05-12T12:30:50.173Z,14.57
2023-05-12T12:33:20.564Z,14.84
2023-05-12T12:35:49.076Z,14.86
2023-05-12T12:38:17.355Z,14.86
2023-05-12T12:40:45.856Z,14.68
2023-05-12T12:43:14.094Z,14.52
2023-05-12T12:45:42.310Z,14.36
2023-05-12T12:48:12.032Z,14.37
2023-05-12T12:50:40.486Z,14.37
2023-05-12T12:53:09.840Z,14.27
2023-05-12T12:55:38.452Z,14.04
2023-05-12T12:58:06.923Z,14.09
2023-05-12T13:00:35.366Z,14.44
2023-05-12T13:03:03.629Z,14.38
2023-05-12T13:05:33.315Z,14.30
2023-05-12T13:08:01.911Z,14.36
2023-05-12T13:10:30.511Z,14.36
2023-05-12T13:12:58.667Z,14.60
2023-05-12T13:15:26.894Z,14.72
2023-05-12T13:17:55.225Z,14.59
2023-05-12T13:20:23.563Z,14.47
2023-05-12T13:22:53.290Z,14.34
2023-05-12T13:25:21.927Z,14.39
2023-05-12T13:27:50.485Z,14.35
2023-05-12T13:30:18.870Z,14.24
2023-05-12T13:32:50.901Z,14.14
2023-05-12T13:35:19.761Z,14.14
2023-05-12T13:37:48.387Z,13.96
2023-05-12T13:40:18.122Z,13.76
2023-05-12T13:42:46.631Z,13.63
2023-05-12T13:45:16.334Z,13.26
2023-05-12T13:47:45.602Z,13.32
2023-05-12T13:50:13.883Z,13.08
2023-05-12T13:52:42.530Z,12.93
2023-05-12T13:55:16.426Z,12.92
2023-05-12T13:57:50.457Z,12.93
2023-05-12T14:00:19.541Z,13.13
2023-05-12T14:02:48.064Z,13.19
2023-05-12T14:05:16.830Z,13.07
2023-05-12T14:07:45.126Z,13.05
2023-05-12T14:10:13.451Z,13.07
2023-05-12T14:12:42.755Z,13.18
2023-05-12T14:15:26.528Z,13.22
2023-05-12T14:18:01.015Z,13.20
2023-05-12T14:20:29.353Z,13.13
2023-05-12T14:22:57.769Z,13.18
2023-05-12T14:25:26.110Z,13.16
2023-05-12T14:27:54.281Z,13.10
2023-05-12T14:30:24.500Z,12.92
2023-05-12T14:32:53.510Z,12.92
2023-05-12T14:35:22.519Z,12.94
2023-05-12T14:37:51.177Z,12.96
2023-05-12T14:40:19.430Z,13.09
2023-05-12T14:42:48.059Z,13.06
2023-05-12T14:45:16.610Z,13.11
2023-05-12T14:47:46.353Z,13.27
2023-05-12T14:50:15.179Z,13.36
2023-05-12T14:52:43.364Z,13.49
2023-05-12T14:55:13.701Z,13.44
2023-05-12T14:57:42.803Z,13.47
2023-05-12T15:00:13.021Z,13.32
2023-05-12T15:02:42.766Z,13.26
2023-05-12T15:05:14.616Z,12.81
2023-05-12T15:07:43.029Z,12.75
2023-05-12T15:10:12.214Z,12.68
2023-05-12T15:12:40.458Z,12.61
2023-05-12T15:15:11.785Z,12.55
2023-05-12T15:17:40.241Z,12.43
2023-05-12T15:20:09.977Z,12.39
2023-05-12T15:22:40.284Z,12.46
2023-05-12T15:25:09.893Z,12.51
2023-05-12T15:27:38.307Z,12.43
2023-05-12T15:30:08.147Z,12.47
2023-05-12T15:32:36.505Z,12.48
2023-05-12T15:35:05.147Z,12.45
2023-05-12T15:37:33.418Z,12.44
2023-05-12T15:40:03.692Z,12.38
2023-05-12T15:42:33.196Z,12.28
2023-05-12T15:45:01.871Z,12.27
2023-05-12T15:47:30.335Z,12.14
2023-05-12T15:49:58.625Z,12.19
2023-05-12T15:52:28.088Z,12.36
2023-05-12T15:54:56.417Z,12.31
2023-05-12T15:57:26.553Z,12.39
2023-05-12T15:59:59.835Z,12.34
2023-05-12T16:02:28.283Z,12.47
2023-05-12T16:04:56.526Z,12.37
2023-05-12T16:07:29.481Z,12.42
2023-05-12T16:09:58.125Z,12.22
2023-05-12T16:12:27.791Z,12.18
2023-05-12T16:14:56.131Z,12.11
2023-05-12T16:17:24.439Z,12.04
2023-05-12T16:19:53.676Z,11.96
2023-05-12T16:22:22.004Z,11.93
2023-05-12T16:24:50.327Z,11.92
2023-05-12T16:27:18.640Z,11.87
2023-05-12T16:29:49.690Z,11.93
2023-05-12T16:32:18.298Z,11.87
2023-05-12T16:34:46.770Z,11.88
2023-05-12T16:37:15.025Z,11.85
2023-05-12T16:39:43.264Z,11.81
2023-05-12T16:42:11.881Z,11.86
2023-05-12T16:44:40.220Z,11.67
2023-05-12T16:47:10.012Z,11.69
2023-05-12T16:49:38.312Z,11.61
2023-05-12T16:52:07.246Z,11.54
2023-05-12T16:54:35.498Z,11.53
2023-05-12T16:57:03.750Z,11.52
2023-05-12T16:59:32.639Z,11.49
2023-05-12T17:02:02.184Z,11.54
2023-05-12T17:04:31.842Z,11.51
2023-05-12T17:07:00.029Z,11.44
2023-05-12T17:09:28.359Z,11.52
2023-05-12T17:11:56.681Z,11.41
2023-05-12T17:14:24.839Z,11.42
2023-05-12T17:16:53.198Z,11.38
2023-05-12T17:19:22.276Z,11.35
2023-05-12T17:21:52.154Z,11.39
2023-05-12T17:24:20.420Z,11.31
2023-05-12T17:26:48.764Z,11.26
2023-05-12T17:29:17.124Z,11.19
2023-05-12T17:31:45.386Z,11.16
2023-05-12T17:34:13.805Z,11.07
2023-05-12T17:36:43.589Z,10.99
2023-05-12T17:39:15.982Z,11.04
2023-05-12T17:41:44.484Z,11.04
2023-05-12T17:44:12.936Z,11.01
2023-05-12T17:46:41.101Z,11.07
2023-05-12T17:49:09.514Z,11.07
2023-05-12T17:51:37.729Z,10.99
2023-05-12T17:54:06.285Z,11.02
2023-05-12T17:56:35.908Z,10.98
2023-05-12T17:59:04.198Z,11.05
2023-05-12T18:01:32.577Z,11.05
2023-05-12T18:04:00.824Z,11.03
2023-05-12T18:06:29.148Z,10.95
2023-05-12T18:08:57.828Z,10.99
2023-05-12T18:11:26.082Z,10.95
2023-05-12T18:13:56.244Z,10.89
2023-05-12T18:16:28.904Z,10.87
2023-05-12T18:18:58.644Z,10.87
2023-05-12T18:21:26.916Z,10.87
2023-05-12T18:23:55.477Z,10.88
2023-05-12T18:26:23.749Z,10.88
2023-05-12T18:28:51.959Z,10.82
2023-05-12T18:31:21.558Z,10.90
2023-05-12T18:33:50.919Z,10.89
2023-05-12T18:36:19.229Z,10.81
2023-05-12T18:38:47.549Z,10.83
2023-05-12T18:41:16.116Z,10.85
2023-05-12T18:43:44.927Z,10.85
2023-05-12T18:46:13.750Z,10.83
2023-05-12T18:48:43.463Z,10.80
2023-05-12T18:51:12.464Z,10.83
2023-05-12T18:53:40.927Z,10.82
2023-05-12T18:56:09.198Z,10.81
2023-05-12T18:58:38.881Z,10.84
2023-05-12T19:01:07.310Z,10.89
2023-05-12T19:03:35.558Z,10.83
2023-05-12T19:06:05.372Z,10.83
2023-05-12T19:08:33.630Z,10.76
2023-05-12T19:11:01.871Z,10.90
2023-05-12T19:13:30.499Z,10.87
2023-05-12T19:15:58.948Z,10.77
2023-05-12T19:18:27.538Z,10.80
2023-05-12T19:20:55.981Z,10.75
2023-05-12T19:23:25.684Z,10.80
2023-05-12T19:25:53.934Z,10.76
2023-05-12T19:28:22.520Z,10.75
2023-05-12T19:30:51.114Z,10.74
2023-05-12T19:33:19.661Z,10.75
2023-05-12T19:35:47.958Z,10.70
2023-05-12T19:38:16.428Z,10.66
2023-05-12T19:40:46.053Z,10.65
2023-05-12T19:43:14.426Z,10.73
2023-05-12T19:45:42.604Z,10.70
2023-05-12T19:48:11.257Z,10.67
2023-05-12T19:50:39.794Z,10.62
2023-05-12T19:53:08.139Z,10.52
2023-05-12T19:55:36.690Z,10.59
2023-05-12T19:58:06.247Z,10.61
2023-05-12T20:00:36.442Z,10.52
2023-05-12T20:03:06.866Z,10.50
2023-05-12T20:05:37.795Z,10.57
2023-05-12T20:08:06.834Z,10.56
2023-05-12T20:10:34.983Z,10.60
2023-05-12T20:13:04.570Z,10.59
2023-05-12T20:15:35.277Z,10.63
2023-05-12T20:18:03.758Z,10.61
2023-05-12T20:20:31.936Z,10.58
2023-05-12T20:23:00.400Z,10.59
2023-05-12T20:25:31.587Z,10.61
2023-05-12T20:28:00.260Z,10.58
2023-05-12T20:30:28.466Z,10.54
2023-05-12T20:32:58.680Z,10.60
2023-05-12T20:35:27.081Z,10.55
2023-05-12T20:37:55.513Z,10.55
2023-05-12T20:40:24.277Z,10.60
2023-05-12T20:42:52.501Z,10.53
2023-05-12T20:45:21.400Z,10.59
2023-05-12T20:47:50.753Z,10.60
2023-05-12T20:50:21.054Z,10.59
2023-05-12T20:52:50.286Z,10.63
2023-05-12T20:55:18.794Z,10.62
2023-05-12T20:57:47.367Z,10.58
2023-05-12T21:00:16.444Z,10.58
2023-05-12T21:02:45.323Z,10.55
2023-05-12T21:05:13.715Z,10.52
2023-05-12T21:07:43.268Z,10.55
2023-05-12T21:10:11.989Z,10.52
2023-05-12T21:12:40.142Z,10.60
2023-05-12T21:15:11.136Z,10.58
2023-05-12T21:17:40.203Z,10.55
2023-05-12T21:20:10.474Z,10.49
2023-05-12T21:22:40.772Z,10.53
2023-05-12T21:25:11.552Z,10.51
2023-05-12T21:27:41.545Z,10.49
2023-05-12T21:30:11.017Z,10.46
2023-05-12T21:32:39.873Z,10.44
2023-05-12T21:35:09.303Z,10.47
2023-05-12T21:37:37.456Z,10.49
2023-05-12T21:40:06.496Z,10.46
2023-05-12T21:42:36.089Z,10.45
2023-05-12T21:45:04.528Z,10.45
2023-05-12T21:47:32.699Z,10.42
2023-05-12T21:50:00.953Z,10.41
2023-05-12T21:52:29.359Z,10.38
2023-05-12T21:54:57.480Z,10.36
2023-05-12T21:57:25.720Z,10.34
2023-05-12T21:59:56.325Z,10.35
2023-05-12T22:02:24.840Z,10.39
2023-05-12T22:04:53.521Z,10.38
2023-05-12T22:07:21.781Z,10.37
2023-05-12T22:09:49.999Z,10.38
2023-05-12T22:12:18.732Z,10.37
2023-05-12T22:14:46.872Z,10.32
2023-05-12T22:17:16.494Z,10.33
2023-05-12T22:19:44.638Z,10.33
2023-05-12T22:22:12.906Z,10.35
2023-05-12T22:24:41.122Z,10.24
2023-05-12T22:27:09.690Z,10.28
2023-05-12T22:29:37.866Z,10.26
2023-05-12T22:32:06.416Z,10.27
2023-05-12T22:34:36.119Z,10.13
2023-05-12T22:37:04.334Z,10.27
2023-05-12T22:39:32.646Z,10.34
2023-05-12T22:42:00.865Z,10.26
2023-05-12T22:44:29.084Z,10.30
2023-05-12T22:46:57.289Z,10.28
2023-05-12T22:49:25.559Z,10.33
2023-05-12T22:51:55.452Z,10.40
2023-05-12T22:54:23.630Z,10.36
2023-05-12T22:56:51.918Z,10.27
2023-05-12T22:59:20.316Z,10.31
2023-05-12T23:01:48.549Z,10.33
2023-05-12T23:04:16.781Z,10.33
2023-05-12T23:06:45.053Z,10.27
2023-05-12T23:09:14.991Z,10.29
2023-05-12T23:11:43.160Z,10.30
2023-05-12T23:14:11.647Z,10.38
2023-05-12T23:16:39.941Z,10.33
2023-05-12T23:19:08.374Z,10.30
2023-05-12T23:21:36.686Z,10.30
2023-05-12T23:24:05.300Z,10.30
2023-05-12T23:26:35.067Z,10.33
2023-05-12T23:29:04.195Z,10.28
2023-05-12T23:31:32.399Z,10.33
2023-05-12T23:34:00.998Z,10.36
2023-05-12T23:36:29.162Z,10.36
2023-05-12T23:38:57.418Z,10.30
2023-05-12T23:41:26.127Z,10.35
2023-05-12T23:43:55.696Z,10.32
2023-05-12T23:46:24.007Z,10.38
2023-05-12T23:48:52.800Z,10.36
2023-05-12T23:51:21.220Z,10.28
2023-05-12T23:53:49.352Z,10.26
2023-05-12T23:56:17.448Z,10.36
2023-05-12T23:58:47.060Z,10.34
